sensor_id;sensor_type;location;lat;lon;timestamp;pressure;altitude;pressure_sealevel;temperature;humidity
53699;BME280;68408;53.952;27.612;2023-04-03T00:01:24;1013;;;1;67.7
53699;BME280;68408;53.952;27.612;2023-04-03T00:06:01;1013;;;1;67.5
53699;BME280;68408;53.952;27.612;2023-04-03T00:11:33;1013;;;1;67.2
53699;BME280;68408;53.952;27.612;2023-04-03T00:15:52;1013;;;0.9;66.3
53699;BME280;68408;53.952;27.612;2023-04-03T00:20:51;1012.9;;;0.8;65.7
53699;BME280;68408;53.952;27.612;2023-04-03T00:25:59;1013;;;0.7;65.9
53699;BME280;68408;53.952;27.612;2023-04-03T00:31:01;1012.9;;;0.7;65.5
53699;BME280;68408;53.952;27.612;2023-04-03T00:36:31;1012.9;;;0.7;65.4
53699;BME280;68408;53.952;27.612;2023-04-03T00:41:15;1012.9;;;0.7;65
53699;BME280;68408;53.952;27.612;2023-04-03T00:46:01;1012.9;;;0.6;64.9
53699;BME280;68408;53.952;27.612;2023-04-03T00:51:25;1013;;;0.7;64.7
53699;BME280;68408;53.952;27.612;2023-04-03T00:55:57;1013;;;0.7;64.7
53699;BME280;68408;53.952;27.612;2023-04-03T01:01:31;1012.9;;;0.7;65
53699;BME280;68408;53.952;27.612;2023-04-03T01:06:16;1012.9;;;0.8;65.1
53699;BME280;68408;53.952;27.612;2023-04-03T01:10:51;1013;;;0.7;65.7
53699;BME280;68408;53.952;27.612;2023-04-03T01:16:23;1013;;;0.7;66.1
53699;BME280;68408;53.952;27.612;2023-04-03T01:22:10;1013;;;0.7;66.6
53699;BME280;68408;53.952;27.612;2023-04-03T01:26:31;1013;;;0.7;67.1
53699;BME280;68408;53.952;27.612;2023-04-03T01:31:19;1013.1;;;0.8;67.2
53699;BME280;68408;53.952;27.612;2023-04-03T01:35:51;1013.1;;;0.8;67.5
53699;BME280;68408;53.952;27.612;2023-04-03T01:41:17;1013.1;;;0.8;67.5
53699;BME280;68408;53.952;27.612;2023-04-03T01:46:07;1013.2;;;0.8;67.3
53699;BME280;68408;53.952;27.612;2023-04-03T01:51:31;1013.1;;;0.8;67.3
53699;BME280;68408;53.952;27.612;2023-04-03T01:56:15;1013.1;;;0.7;67.3
53699;BME280;68408;53.952;27.612;2023-04-03T02:01:07;1013.2;;;0.7;67.1
53699;BME280;68408;53.952;27.612;2023-04-03T02:06:23;1013.2;;;0.6;65.9
53699;BME280;68408;53.952;27.612;2023-04-03T02:10:51;1013.2;;;0.5;65.6
53699;BME280;68408;53.952;27.612;2023-04-03T02:16:33;1013.3;;;0.5;65.8
53699;BME280;68408;53.952;27.612;2023-04-03T02:21:15;1013.3;;;0.4;65.2
53699;BME280;68408;53.952;27.612;2023-04-03T02:25:51;1013.2;;;0.4;65.4
53699;BME280;68408;53.952;27.612;2023-04-03T02:30:51;1013.3;;;0.4;65
53699;BME280;68408;53.952;27.612;2023-04-03T02:35:52;1013.4;;;0.3;64.7
53699;BME280;68408;53.952;27.612;2023-04-03T02:41:33;1013.3;;;0.3;64.8
53699;BME280;68408;53.952;27.612;2023-04-03T02:46:17;1013.4;;;0.2;65.1
53699;BME280;68408;53.952;27.612;2023-04-03T02:50:57;1013.3;;;0.1;65.5
53699;BME280;68408;53.952;27.612;2023-04-03T02:56:01;1013.4;;;0.1;65.3
53699;BME280;68408;53.952;27.612;2023-04-03T03:00:51;1013.4;;;0.1;65.3
53699;BME280;68408;53.952;27.612;2023-04-03T03:06:31;1013.3;;;0.1;65.4
53699;BME280;68408;53.952;27.612;2023-04-03T03:11:15;1013.3;;;0.1;65.5
53699;BME280;68408;53.952;27.612;2023-04-03T03:16:02;1013.5;;;0;65.3
53699;BME280;68408;53.952;27.612;2023-04-03T03:21:23;1013.5;;;-0.1;65.2
53699;BME280;68408;53.952;27.612;2023-04-03T03:26:02;1013.5;;;-0.1;65.6
53699;BME280;68408;53.952;27.612;2023-04-03T03:31:31;1013.5;;;-0.1;66.2
53699;BME280;68408;53.952;27.612;2023-04-03T03:36:15;1013.5;;;-0.1;65.6
53699;BME280;68408;53.952;27.612;2023-04-03T03:41:15;1013.5;;;-0.1;66.1
53699;BME280;68408;53.952;27.612;2023-04-03T03:46:29;1013.5;;;-0.1;66.4
53699;BME280;68408;53.952;27.612;2023-04-03T03:51:01;1013.7;;;-0.1;65.9
53699;BME280;68408;53.952;27.612;2023-04-03T03:56:15;1013.6;;;-0.2;65.6
53699;BME280;68408;53.952;27.612;2023-04-03T04:01:15;1013.6;;;-0.2;65.7
53699;BME280;68408;53.952;27.612;2023-04-03T04:06:09;1013.6;;;-0.3;65.4
53699;BME280;68408;53.952;27.612;2023-04-03T04:11:19;1013.6;;;-0.3;65.5
53699;BME280;68408;53.952;27.612;2023-04-03T04:16:01;1013.6;;;-0.2;65.4
53699;BME280;68408;53.952;27.612;2023-04-03T04:21:15;1013.6;;;-0.3;65.4
53699;BME280;68408;53.952;27.612;2023-04-03T04:26:09;1013.6;;;-0.2;65.6
53699;BME280;68408;53.952;27.612;2023-04-03T04:31:15;1013.7;;;-0.2;65.9
53699;BME280;68408;53.952;27.612;2023-04-03T04:36:31;1013.7;;;-0.4;68.2
53699;BME280;68408;53.952;27.612;2023-04-03T04:41:08;1013.7;;;-0.5;73.5
53699;BME280;68408;53.952;27.612;2023-04-03T04:46:09;1013.6;;;-0.5;70.5
53699;BME280;68408;53.952;27.612;2023-04-03T04:51:25;1013.7;;;-0.4;67.5
53699;BME280;68408;53.952;27.612;2023-04-03T04:56:33;1013.7;;;-0.4;67
53699;BME280;68408;53.952;27.612;2023-04-03T05:01:31;1013.7;;;-0.3;66.1
53699;BME280;68408;53.952;27.612;2023-04-03T05:05:57;1013.9;;;-0.2;65.7
53699;BME280;68408;53.952;27.612;2023-04-03T05:11:15;1013.8;;;-0.1;65.6
53699;BME280;68408;53.952;27.612;2023-04-03T05:15:51;1013.8;;;-0.1;65.3
53699;BME280;68408;53.952;27.612;2023-04-03T05:21:05;1013.8;;;-0.1;65.3
53699;BME280;68408;53.952;27.612;2023-04-03T05:26:33;1013.8;;;0;65
53699;BME280;68408;53.952;27.612;2023-04-03T05:30:53;1013.8;;;0;64.7
53699;BME280;68408;53.952;27.612;2023-04-03T05:36:15;1013.7;;;-0.1;64.8
53699;BME280;68408;53.952;27.612;2023-04-03T05:40:52;1013.8;;;0;64.6
53699;BME280;68408;53.952;27.612;2023-04-03T05:46:16;1013.8;;;0.1;64.5
53699;BME280;68408;53.952;27.612;2023-04-03T05:51:34;1013.8;;;0.2;64.3
53699;BME280;68408;53.952;27.612;2023-04-03T05:56:07;1013.9;;;0.2;63.5
53699;BME280;68408;53.952;27.612;2023-04-03T06:01:15;1013.8;;;0.3;63.6
53699;BME280;68408;53.952;27.612;2023-04-03T06:06:16;1013.8;;;0.3;63.4
53699;BME280;68408;53.952;27.612;2023-04-03T06:11:05;1013.8;;;0.5;63.3
53699;BME280;68408;53.952;27.612;2023-04-03T06:15:53;1013.9;;;0.6;62.3
53699;BME280;68408;53.952;27.612;2023-04-03T06:20:51;1013.9;;;0.5;62.1
53699;BME280;68408;53.952;27.612;2023-04-03T06:26:07;1014.1;;;0.4;62.3
53699;BME280;68408;53.952;27.612;2023-04-03T06:31:15;1014;;;0.3;62.6
53699;BME280;68408;53.952;27.612;2023-04-03T06:35:58;1014;;;0.3;62.6
53699;BME280;68408;53.952;27.612;2023-04-03T06:41:30;1014;;;0.7;61.9
53699;BME280;68408;53.952;27.612;2023-04-03T06:46:02;1014;;;0.9;61
53699;BME280;68408;53.952;27.612;2023-04-03T06:51:17;1014;;;1.2;60.1
53699;BME280;68408;53.952;27.612;2023-04-03T06:55:51;1014.2;;;1.4;59.3
53699;BME280;68408;53.952;27.612;2023-04-03T07:01:16;1014.2;;;1.3;59.3
53699;BME280;68408;53.952;27.612;2023-04-03T07:06:34;1014.3;;;1.3;59
53699;BME280;68408;53.952;27.612;2023-04-03T07:10:52;1014.3;;;1.4;59
53699;BME280;68408;53.952;27.612;2023-04-03T07:16:32;1014.5;;;1.4;58.3
53699;BME280;68408;53.952;27.612;2023-04-03T07:21:05;1014.4;;;1.5;58.1
53699;BME280;68408;53.952;27.612;2023-04-03T07:26:16;1014.7;;;1.5;58
53699;BME280;68408;53.952;27.612;2023-04-03T07:31:30;1014.5;;;1.4;58.3
53699;BME280;68408;53.952;27.612;2023-04-03T07:35:58;1014.5;;;1.6;58.1
53699;BME280;68408;53.952;27.612;2023-04-03T07:41:17;1014.5;;;1.7;57.5
53699;BME280;68408;53.952;27.612;2023-04-03T07:46:24;1014.6;;;1.7;57.1
53699;BME280;68408;53.952;27.612;2023-04-03T07:51:10;1014.5;;;1.8;56.2
53699;BME280;68408;53.952;27.612;2023-04-03T07:56:32;1014.6;;;1.8;56
53699;BME280;68408;53.952;27.612;2023-04-03T08:00:52;1014.6;;;2;56.2
53699;BME280;68408;53.952;27.612;2023-04-03T08:06:01;1014.7;;;2.3;55.1
53699;BME280;68408;53.952;27.612;2023-04-03T08:11:22;1014.7;;;2.1;54.7
53699;BME280;68408;53.952;27.612;2023-04-03T08:16:32;1014.7;;;2;54.3
53699;BME280;68408;53.952;27.612;2023-04-03T08:21:04;1014.9;;;1.8;54
53699;BME280;68408;53.952;27.612;2023-04-03T08:25:52;1014.8;;;1.6;54.6
53699;BME280;68408;53.952;27.612;2023-04-03T08:31:11;1014.8;;;1.6;54.4
53699;BME280;68408;53.952;27.612;2023-04-03T08:36:18;1014.9;;;1.7;54.3
53699;BME280;68408;53.952;27.612;2023-04-03T08:41:34;1015;;;1.8;53.8
53699;BME280;68408;53.952;27.612;2023-04-03T08:46:11;1015;;;1.7;53.7
53699;BME280;68408;53.952;27.612;2023-04-03T08:50:53;1015;;;1.6;54.1
53699;BME280;68408;53.952;27.612;2023-04-03T08:56:30;1015;;;1.9;54
53699;BME280;68408;53.952;27.612;2023-04-03T09:01:23;1015.1;;;2;53.4
53699;BME280;68408;53.952;27.612;2023-04-03T09:06:32;1015;;;2.2;53.6
53699;BME280;68408;53.952;27.612;2023-04-03T09:11:12;1015.2;;;2.4;52.7
53699;BME280;68408;53.952;27.612;2023-04-03T09:16:02;1015.2;;;2.5;52.8
53699;BME280;68408;53.952;27.612;2023-04-03T09:21:12;1015.2;;;2.5;52.6
53699;BME280;68408;53.952;27.612;2023-04-03T09:26:23;1015.2;;;2.4;53.1
53699;BME280;68408;53.952;27.612;2023-04-03T09:31:35;1015.3;;;2.4;52.6
53699;BME280;68408;53.952;27.612;2023-04-03T09:35:52;1015.2;;;2.3;52.9
53699;BME280;68408;53.952;27.612;2023-04-03T09:41:02;1015.2;;;2.4;52.8
53699;BME280;68408;53.952;27.612;2023-04-03T09:45:52;1015.3;;;2.5;51.5
53699;BME280;68408;53.952;27.612;2023-04-03T09:51:32;1015.2;;;2.5;52.3
53699;BME280;68408;53.952;27.612;2023-04-03T09:56:21;1015.2;;;2.5;51.6
53699;BME280;68408;53.952;27.612;2023-04-03T10:01:20;1015.2;;;2.7;51.2
53699;BME280;68408;53.952;27.612;2023-04-03T10:06:21;1015.2;;;2.7;51.5
53699;BME280;68408;53.952;27.612;2023-04-03T10:11:12;1015.3;;;2.7;51.4
53699;BME280;68408;53.952;27.612;2023-04-03T10:16:13;1015.3;;;2.8;51.6
53699;BME280;68408;53.952;27.612;2023-04-03T10:21:35;1015.4;;;2.8;50.8
53699;BME280;68408;53.952;27.612;2023-04-03T10:26:13;1015.4;;;2.7;50.3
53699;BME280;68408;53.952;27.612;2023-04-03T10:31:03;1015.4;;;2.8;50
53699;BME280;68408;53.952;27.612;2023-04-03T10:36:06;1015.4;;;2.9;49.8
53699;BME280;68408;53.952;27.612;2023-04-03T10:41:21;1015.4;;;3.1;49.7
53699;BME280;68408;53.952;27.612;2023-04-03T10:46:35;1015.5;;;3.1;49.6
53699;BME280;68408;53.952;27.612;2023-04-03T10:50:55;1015.4;;;2.9;49.7
53699;BME280;68408;53.952;27.612;2023-04-03T10:55:53;1015.5;;;3;49.2
53699;BME280;68408;53.952;27.612;2023-04-03T11:01:16;1015.5;;;3;48.8
53699;BME280;68408;53.952;27.612;2023-04-03T11:06:22;1015.4;;;2.8;49.2
53699;BME280;68408;53.952;27.612;2023-04-03T11:11:37;1015.4;;;3;49.1
53699;BME280;68408;53.952;27.612;2023-04-03T11:16:12;1015.5;;;2.9;48.1
53699;BME280;68408;53.952;27.612;2023-04-03T11:21:02;1015.4;;;2.9;48.6
53699;BME280;68408;53.952;27.612;2023-04-03T11:26:11;1015.4;;;3.2;48.4
53699;BME280;68408;53.952;27.612;2023-04-03T11:31:02;1015.5;;;3.4;47.6
53699;BME280;68408;53.952;27.612;2023-04-03T11:36:38;1015.3;;;3.3;48.3
53699;BME280;68408;53.952;27.612;2023-04-03T11:41:02;1015.3;;;3.1;48.8
53699;BME280;68408;53.952;27.612;2023-04-03T11:46:12;1015.3;;;3;49.4
53699;BME280;68408;53.952;27.612;2023-04-03T11:51:43;1015.4;;;3;49.5
53699;BME280;68408;53.952;27.612;2023-04-03T11:56:30;1015.4;;;2.8;49.6
53699;BME280;68408;53.952;27.612;2023-04-03T12:01:42;1015.3;;;2.9;49.3
53699;BME280;68408;53.952;27.612;2023-04-03T12:07:18;1015.2;;;3;49.6
53699;BME280;68408;53.952;27.612;2023-04-03T12:11:15;1015.2;;;3.2;49.5
53699;BME280;68408;53.952;27.612;2023-04-03T12:16:18;1015.3;;;3.2;48.9
53699;BME280;68408;53.952;27.612;2023-04-03T12:21:22;1015.3;;;3.2;48
53699;BME280;68408;53.952;27.612;2023-04-03T12:26:36;1015.3;;;3.2;47.6
53699;BME280;68408;53.952;27.612;2023-04-03T12:31:25;1015.3;;;3.3;47.6
53699;BME280;68408;53.952;27.612;2023-04-03T12:36:02;1015.3;;;3.3;47.4
53699;BME280;68408;53.952;27.612;2023-04-03T12:41:18;1015.4;;;3.2;47.2
53699;BME280;68408;53.952;27.612;2023-04-03T12:46:22;1015.3;;;3.2;47.3
53699;BME280;68408;53.952;27.612;2023-04-03T12:51:37;1015.4;;;3.1;47.1
53699;BME280;68408;53.952;27.612;2023-04-03T12:56:23;1015.5;;;3;47.5
53699;BME280;68408;53.952;27.612;2023-04-03T13:01:02;1015.5;;;2.9;47.3
53699;BME280;68408;53.952;27.612;2023-04-03T13:05:58;1015.4;;;2.9;47.2
53699;BME280;68408;53.952;27.612;2023-04-03T13:11:22;1015.4;;;2.9;47.5
53699;BME280;68408;53.952;27.612;2023-04-03T13:16:32;1015.4;;;2.9;47.7
53699;BME280;68408;53.952;27.612;2023-04-03T13:21:13;1015.5;;;2.8;47
53699;BME280;68408;53.952;27.612;2023-04-03T13:25:52;1015.4;;;3;47.3
53699;BME280;68408;53.952;27.612;2023-04-03T13:31:04;1015.4;;;3.2;47.2
53699;BME280;68408;53.952;27.612;2023-04-03T13:36:22;1015.4;;;3.2;47.2
53699;BME280;68408;53.952;27.612;2023-04-03T13:41:36;1015.5;;;2.9;47.5
53699;BME280;68408;53.952;27.612;2023-04-03T13:46:23;1015.5;;;2.9;47.7
53699;BME280;68408;53.952;27.612;2023-04-03T13:50:54;1015.4;;;3.1;47.5
53699;BME280;68408;53.952;27.612;2023-04-03T13:56:17;1015.4;;;3;47.4
53699;BME280;68408;53.952;27.612;2023-04-03T14:01:22;1015.4;;;2.9;47.6
53699;BME280;68408;53.952;27.612;2023-04-03T14:05:58;1015.3;;;3.1;47.4
53699;BME280;68408;53.952;27.612;2023-04-03T14:11:22;1015.3;;;3.2;47
53699;BME280;68408;53.952;27.612;2023-04-03T14:16:21;1015.5;;;3.1;46.2
53699;BME280;68408;53.952;27.612;2023-04-03T14:21:14;1015.5;;;2.9;46.1
53699;BME280;68408;53.952;27.612;2023-04-03T14:26:23;1015.5;;;2.7;46.5
53699;BME280;68408;53.952;27.612;2023-04-03T14:31:36;1015.6;;;2.6;46.8
53699;BME280;68408;53.952;27.612;2023-04-03T14:36:23;1015.6;;;2.5;46.9
53699;BME280;68408;53.952;27.612;2023-04-03T14:41:14;1015.6;;;2.4;46.9
53699;BME280;68408;53.952;27.612;2023-04-03T14:45:52;1015.7;;;2.4;47.3
53699;BME280;68408;53.952;27.612;2023-04-03T14:51:22;1015.7;;;2.3;48.3
53699;BME280;68408;53.952;27.612;2023-04-03T14:56:18;1015.8;;;2.2;48.8
53699;BME280;68408;53.952;27.612;2023-04-03T15:01:36;1015.8;;;2.1;48
53699;BME280;68408;53.952;27.612;2023-04-03T15:06:06;1015.9;;;2.2;47.9
53699;BME280;68408;53.952;27.612;2023-04-03T15:10:52;1015.9;;;2.2;47.6
53699;BME280;68408;53.952;27.612;2023-04-03T15:16:36;1015.9;;;2.2;47.9
53699;BME280;68408;53.952;27.612;2023-04-03T15:21:22;1015.9;;;2;48.3
53699;BME280;68408;53.952;27.612;2023-04-03T15:26:36;1015.9;;;2;48.8
53699;BME280;68408;53.952;27.612;2023-04-03T15:31:22;1015.9;;;2;49.4
53699;BME280;68408;53.952;27.612;2023-04-03T15:36:12;1016;;;2;50.2
53699;BME280;68408;53.952;27.612;2023-04-03T15:41:02;1016;;;1.9;50.7
53699;BME280;68408;53.952;27.612;2023-04-03T15:46:39;1016;;;1.8;51
53699;BME280;68408;53.952;27.612;2023-04-03T15:51:34;1016;;;1.7;50.8
53699;BME280;68408;53.952;27.612;2023-04-03T15:55:52;1016;;;1.7;50.9
53699;BME280;68408;53.952;27.612;2023-04-03T16:01:36;1016;;;1.7;50.9
53699;BME280;68408;53.952;27.612;2023-04-03T16:05:52;1016;;;1.7;51.1
53699;BME280;68408;53.952;27.612;2023-04-03T16:11:18;1016;;;1.6;51.1
53699;BME280;68408;53.952;27.612;2023-04-03T16:16:36;1016;;;1.5;51.2
53699;BME280;68408;53.952;27.612;2023-04-03T16:20:52;1016.1;;;1.5;51.2
53699;BME280;68408;53.952;27.612;2023-04-03T16:26:38;1016.1;;;1.5;51.3
53699;BME280;68408;53.952;27.612;2023-04-03T16:30:52;1016.1;;;1.5;51.4
53699;BME280;68408;53.952;27.612;2023-04-03T16:36:14;1016.1;;;1.5;51.1
53699;BME280;68408;53.952;27.612;2023-04-03T16:41:38;1016.2;;;1.5;50.5
53699;BME280;68408;53.952;27.612;2023-04-03T16:46:02;1016.2;;;1.4;50.8
53699;BME280;68408;53.952;27.612;2023-04-03T16:51:38;1016.3;;;1.3;51
53699;BME280;68408;53.952;27.612;2023-04-03T16:56:02;1016.3;;;1.3;51.6
53699;BME280;68408;53.952;27.612;2023-04-03T17:01:21;1016.4;;;1.2;52
53699;BME280;68408;53.952;27.612;2023-04-03T17:06:38;1016.4;;;1.2;52.4
53699;BME280;68408;53.952;27.612;2023-04-03T17:11:08;1016.5;;;1.2;52.3
53699;BME280;68408;53.952;27.612;2023-04-03T17:16:38;1016.4;;;1.2;52.7
53699;BME280;68408;53.952;27.612;2023-04-03T17:20:52;1016.5;;;1.2;52.9
53699;BME280;68408;53.952;27.612;2023-04-03T17:26:20;1016.5;;;1.2;52.2
53699;BME280;68408;53.952;27.612;2023-04-03T17:31:08;1016.5;;;1.2;51.8
53699;BME280;68408;53.952;27.612;2023-04-03T17:36:02;1016.6;;;1.1;51.6
53699;BME280;68408;53.952;27.612;2023-04-03T17:41:38;1016.6;;;1.1;51.6
53699;BME280;68408;53.952;27.612;2023-04-03T17:45:52;1016.6;;;1.1;51.6
53699;BME280;68408;53.952;27.612;2023-04-03T17:51:21;1016.6;;;1.1;51.7
53699;BME280;68408;53.952;27.612;2023-04-03T17:55:52;1016.6;;;1.1;52.1
53699;BME280;68408;53.952;27.612;2023-04-03T18:01:09;1016.6;;;1.1;52.3
53699;BME280;68408;53.952;27.612;2023-04-03T18:06:39;1016.6;;;1.1;52.4
53699;BME280;68408;53.952;27.612;2023-04-03T18:41:20;1016.4;;;1;53
53699;BME280;68408;53.952;27.612;2023-04-03T18:46:02;1016.4;;;1;52.8
53699;BME280;68408;53.952;27.612;2023-04-03T18:51:08;1016.4;;;0.9;52.9
53699;BME280;68408;53.952;27.612;2023-04-03T18:56:38;1016.2;;;0.9;53.2
53699;BME280;68408;53.952;27.612;2023-04-03T19:00:52;1016.2;;;0.9;53.5
53699;BME280;68408;53.952;27.612;2023-04-03T19:06:20;1016.1;;;0.9;53.6
53699;BME280;68408;53.952;27.612;2023-04-03T19:11:02;1016.1;;;1;53.7
53699;BME280;68408;53.952;27.612;2023-04-03T19:16:08;1016.1;;;1;53.8
53699;BME280;68408;53.952;27.612;2023-04-03T19:21:38;1016.1;;;1;53.8
53699;BME280;68408;53.952;27.612;2023-04-03T19:26:03;1016;;;1;53.9
53699;BME280;68408;53.952;27.612;2023-04-03T19:31:20;1016;;;0.9;53.8
53699;BME280;68408;53.952;27.612;2023-04-03T19:35:52;1016;;;0.9;53.9
53699;BME280;68408;53.952;27.612;2023-04-03T19:41:02;1015.9;;;0.9;54.1
53699;BME280;68408;53.952;27.612;2023-04-03T19:46:38;1015.9;;;0.8;54.3
53699;BME280;68408;53.952;27.612;2023-04-03T19:51:00;1015.9;;;0.8;54.6
53699;BME280;68408;53.952;27.612;2023-04-03T19:56:20;1015.9;;;0.8;54.8
53699;BME280;68408;53.952;27.612;2023-04-03T20:01:12;1016;;;0.8;55
53699;BME280;68408;53.952;27.612;2023-04-03T20:06:08;1015.9;;;0.8;55.1
53699;BME280;68408;53.952;27.612;2023-04-03T20:11:38;1015.9;;;0.8;55.2
53699;BME280;68408;53.952;27.612;2023-04-03T20:16:02;1015.9;;;0.9;55.1
53699;BME280;68408;53.952;27.612;2023-04-03T20:21:14;1015.9;;;1;55
53699;BME280;68408;53.952;27.612;2023-04-03T20:26:02;1015.9;;;0.9;54.8
53699;BME280;68408;53.952;27.612;2023-04-03T20:31:24;1015.8;;;0.8;55
53699;BME280;68408;53.952;27.612;2023-04-03T20:36:38;1015.8;;;0.8;55.3
53699;BME280;68408;53.952;27.612;2023-04-03T20:41:08;1015.7;;;0.8;55.3
53699;BME280;68408;53.952;27.612;2023-04-03T20:46:20;1015.7;;;0.8;55.4
53699;BME280;68408;53.952;27.612;2023-04-03T20:50:52;1015.8;;;0.7;55.5
53699;BME280;68408;53.952;27.612;2023-04-03T20:56:02;1015.7;;;0.8;55.6
53699;BME280;68408;53.952;27.612;2023-04-03T21:01:38;1015.8;;;0.8;55.6
53699;BME280;68408;53.952;27.612;2023-04-03T21:21:00;1015.6;;;0.8;56
53699;BME280;68408;53.952;27.612;2023-04-03T21:26:39;1015.6;;;0.7;56.2
53699;BME280;68408;53.952;27.612;2023-04-03T21:31:08;1015.5;;;0.7;56.4
53699;BME280;68408;53.952;27.612;2023-04-03T21:36:04;1015.6;;;0.7;56.7
53699;BME280;68408;53.952;27.612;2023-04-03T21:40:54;1015.6;;;0.7;57.1
53699;BME280;68408;53.952;27.612;2023-04-03T21:46:02;1015.6;;;0.7;57.3
53699;BME280;68408;53.952;27.612;2023-04-03T21:51:38;1015.6;;;0.7;57.5
53699;BME280;68408;53.952;27.612;2023-04-03T21:55:52;1015.6;;;0.7;57.5
53699;BME280;68408;53.952;27.612;2023-04-03T22:01:20;1015.7;;;0.7;57.5
53699;BME280;68408;53.952;27.612;2023-04-03T22:05:52;1015.7;;;0.7;57.8
53699;BME280;68408;53.952;27.612;2023-04-03T22:11:08;1015.7;;;0.7;57.9
53699;BME280;68408;53.952;27.612;2023-04-03T22:16:36;1015.7;;;0.7;58
53699;BME280;68408;53.952;27.612;2023-04-03T22:21:02;1015.6;;;0.7;58.2
53699;BME280;68408;53.952;27.612;2023-04-03T22:26:20;1015.6;;;0.7;58.3
53699;BME280;68408;53.952;27.612;2023-04-03T22:31:02;1015.6;;;0.7;58.4
53699;BME280;68408;53.952;27.612;2023-04-03T22:36:09;1015.6;;;0.7;58.4
53699;BME280;68408;53.952;27.612;2023-04-03T22:41:36;1015.6;;;0.7;58.5
53699;BME280;68408;53.952;27.612;2023-04-03T22:46:08;1015.6;;;0.8;58.4
53699;BME280;68408;53.952;27.612;2023-04-03T22:50:58;1015.6;;;0.8;58.4
53699;BME280;68408;53.952;27.612;2023-04-03T22:55:53;1015.6;;;0.8;58.6
53699;BME280;68408;53.952;27.612;2023-04-03T23:01:03;1015.5;;;0.8;58.7
53699;BME280;68408;53.952;27.612;2023-04-03T23:06:36;1015.6;;;0.8;58.7
53699;BME280;68408;53.952;27.612;2023-04-03T23:11:08;1015.4;;;0.7;58.9
53699;BME280;68408;53.952;27.612;2023-04-03T23:16:20;1015.4;;;0.7;59
53699;BME280;68408;53.952;27.612;2023-04-03T23:20:52;1015.4;;;0.7;59
53699;BME280;68408;53.952;27.612;2023-04-03T23:26:20;1015.3;;;0.6;59.3
53699;BME280;68408;53.952;27.612;2023-04-03T23:31:34;1015.3;;;0.6;59.6
53699;BME280;68408;53.952;27.612;2023-04-03T23:36:06;1015.3;;;0.6;59.7
53699;BME280;68408;53.952;27.612;2023-04-03T23:40:52;1015.3;;;0.5;60
53699;BME280;68408;53.952;27.612;2023-04-03T23:45:52;1015.3;;;0.5;60.4
53699;BME280;68408;53.952;27.612;2023-04-03T23:51:06;1015.3;;;0.6;60.3
53699;BME280;68408;53.952;27.612;2023-04-03T23:56:32;1015.4;;;0.6;60.5
